createdAt,value
2023-05-23T00:05:41.308Z,1014.80
2023-05-23T00:11:28.514Z,1014.82
2023-05-23T00:18:53.229Z,1014.72
2023-05-23T00:23:41.267Z,1014.76
2023-05-23T00:29:53.628Z,1014.77
2023-05-23T00:40:22.643Z,1014.66
2023-05-23T00:45:47.118Z,1014.67
2023-05-23T00:51:35.093Z,1014.74
2023-05-23T00:56:07.585Z,1014.74
2023-05-23T01:02:01.160Z,1014.71
2023-05-23T01:06:57.228Z,1014.78
2023-05-23T01:11:50.694Z,1014.76
2023-05-23T01:17:40.537Z,1014.86
2023-05-23T01:23:04.696Z,1014.86
2023-05-23T01:29:12.113Z,1014.96
2023-05-23T01:34:12.723Z,1014.91
2023-05-23T01:39:25.400Z,1014.96
2023-05-23T01:44:40.778Z,1014.92
2023-05-23T01:50:39.111Z,1014.94
2023-05-23T01:55:36.335Z,1014.95
2023-05-23T02:01:21.430Z,1014.96
2023-05-23T02:06:48.895Z,1015.01
2023-05-23T02:12:12.704Z,1015.00
2023-05-23T02:17:08.434Z,1015.01
2023-05-23T02:22:23.318Z,1014.96
2023-05-23T02:27:46.287Z,1014.94
2023-05-23T02:32:54.218Z,1015.01
2023-05-23T02:38:27.905Z,1015.06
2023-05-23T02:44:07.800Z,1015.12
2023-05-23T02:49:40.097Z,1015.17
2023-05-23T02:55:20.149Z,1015.18
2023-05-23T03:00:19.073Z,1015.27
2023-05-23T03:05:12.656Z,1015.25
2023-05-23T03:10:20.229Z,1015.27
2023-05-23T03:15:30.885Z,1015.32
2023-05-23T03:20:36.186Z,1015.31
2023-05-23T03:26:23.111Z,1015.32
2023-05-23T03:31:31.836Z,1015.36
2023-05-23T03:36:54.805Z,1015.39
2023-05-23T03:42:02.540Z,1015.42
2023-05-23T03:47:22.820Z,1015.41
2023-05-23T03:52:36.731Z,1015.43
2023-05-23T03:57:56.932Z,1015.43
2023-05-23T04:03:08.190Z,1015.43
2023-05-23T04:08:15.629Z,1015.49
2023-05-23T04:13:30.174Z,1015.48
2023-05-23T04:18:41.463Z,1015.50
2023-05-23T04:23:53.007Z,1015.46
2023-05-23T04:30:01.668Z,1015.50
2023-05-23T04:34:40.926Z,1015.51
2023-05-23T04:40:05.674Z,1015.58
2023-05-23T04:45:09.429Z,1015.63
2023-05-23T04:51:10.932Z,1015.66
2023-05-23T04:55:48.569Z,1015.71
2023-05-23T05:01:24.738Z,1015.73
2023-05-23T05:07:04.795Z,1015.74
2023-05-23T05:11:41.877Z,1015.76
2023-05-23T05:17:30.984Z,1015.77
2023-05-23T05:23:13.691Z,1015.75
2023-05-23T05:28:43.102Z,1015.73
2023-05-23T05:34:09.847Z,1015.78
2023-05-23T05:39:23.380Z,1015.87
2023-05-23T05:45:00.672Z,1015.95
2023-05-23T05:50:06.489Z,1015.94
2023-05-23T05:55:55.185Z,1015.92
2023-05-23T06:01:37.751Z,1015.90
2023-05-23T06:07:35.118Z,1015.93
2023-05-23T06:13:21.617Z,1015.88
2023-05-23T06:19:32.481Z,1015.93
2023-05-23T06:24:07.026Z,1015.92
2023-05-23T06:34:50.022Z,1016.00
2023-05-23T06:40:49.836Z,1016.03
2023-05-23T06:47:05.238Z,1016.00
2023-05-23T06:52:01.542Z,1016.01
2023-05-23T06:58:09.610Z,1016.02
2023-05-23T07:03:05.858Z,1016.07
2023-05-23T07:08:49.838Z,1016.11
2023-05-23T07:14:19.040Z,1016.09
2023-05-23T07:25:47.060Z,1016.14
2023-05-23T07:30:42.154Z,1016.13
2023-05-23T07:35:55.016Z,1016.14
2023-05-23T07:41:19.495Z,1016.21
2023-05-23T07:46:26.574Z,1016.22
2023-05-23T07:51:40.795Z,1016.18
2023-05-23T07:56:58.744Z,1016.20
2023-05-23T08:02:11.841Z,1016.25
2023-05-23T08:07:19.725Z,1016.29
2023-05-23T08:12:36.151Z,1016.31
2023-05-23T08:17:51.746Z,1016.38
2023-05-23T08:23:18.072Z,1016.36
2023-05-23T08:28:46.560Z,1016.36
2023-05-23T08:34:14.096Z,1016.46
2023-05-23T08:39:54.975Z,1016.54
2023-05-23T08:45:09.868Z,1016.59
2023-05-23T08:50:23.302Z,1016.64
2023-05-23T08:57:13.292Z,1016.66
2023-05-23T09:02:40.344Z,1016.57
2023-05-23T09:07:59.222Z,1016.49
2023-05-23T09:13:11.644Z,1016.56
2023-05-23T09:28:37.232Z,1016.78
2023-05-23T09:35:50.329Z,1016.73
2023-05-23T09:41:46.861Z,1016.74
2023-05-23T09:52:14.698Z,1016.77
2023-05-23T09:58:10.042Z,1016.67
2023-05-23T10:03:23.729Z,1016.74
2023-05-23T10:10:10.518Z,1016.63
2023-05-23T10:14:09.613Z,1016.56
2023-05-23T10:19:41.116Z,1016.56
2023-05-23T10:25:14.914Z,1016.57
2023-05-23T10:30:31.551Z,1016.52
2023-05-23T10:35:36.258Z,1016.44
2023-05-23T10:41:23.465Z,1016.50
2023-05-23T10:46:40.070Z,1016.47
2023-05-23T10:51:52.517Z,1016.44
2023-05-23T10:57:05.722Z,1016.40
2023-05-23T11:02:41.782Z,1016.31
2023-05-23T11:19:45.032Z,1016.18
2023-05-23T11:24:10.458Z,1016.11
2023-05-23T11:35:06.715Z,1016.08
2023-05-23T11:47:51.804Z,1016.00
2023-05-23T11:53:03.001Z,1015.79
2023-05-23T11:58:15.156Z,1015.73
2023-05-23T12:03:55.361Z,1015.71
2023-05-23T12:16:22.136Z,1015.68
2023-05-23T12:21:51.353Z,1015.61
2023-05-23T12:27:36.844Z,1015.58
2023-05-23T12:36:10.485Z,1015.62
2023-05-23T12:38:31.719Z,1015.58
2023-05-23T12:43:51.730Z,1015.52
2023-05-23T12:49:14.538Z,1015.47
2023-05-23T12:54:09.795Z,1015.48
2023-05-23T13:00:40.302Z,1015.41
2023-05-23T13:07:02.072Z,1015.31
2023-05-23T13:12:17.455Z,1015.38
2023-05-23T13:17:37.399Z,1015.35
2023-05-23T13:23:13.405Z,1015.42
2023-05-23T13:28:43.866Z,1015.46
2023-05-23T13:35:29.196Z,1015.39
2023-05-23T13:39:17.690Z,1015.40
2023-05-23T13:44:41.708Z,1015.42
2023-05-23T13:49:54.529Z,1015.43
2023-05-23T13:55:05.467Z,1015.56
2023-05-23T14:00:24.951Z,1015.62
2023-05-23T14:05:41.886Z,1015.57
2023-05-23T14:10:54.608Z,1015.52
2023-05-23T14:16:11.844Z,1015.55
2023-05-23T14:21:25.583Z,1015.66
2023-05-23T14:26:39.940Z,1015.80
2023-05-23T14:31:50.143Z,1015.82
2023-05-23T14:36:57.042Z,1015.74
2023-05-23T14:42:19.723Z,1015.75
2023-05-23T14:47:31.259Z,1015.70
2023-05-23T14:52:43.636Z,1015.73
2023-05-23T14:57:51.343Z,1015.72
2023-05-23T15:02:59.479Z,1015.76
2023-05-23T15:08:06.975Z,1015.75
2023-05-23T15:13:21.555Z,1015.77
2023-05-23T15:19:22.302Z,1015.72
2023-05-23T15:29:01.094Z,1015.62
2023-05-23T15:29:45.230Z,1015.66
2023-05-23T15:34:16.490Z,1015.59
2023-05-23T15:39:33.128Z,1015.61
2023-05-23T15:44:38.687Z,1015.66
2023-05-23T15:49:47.417Z,1015.73
2023-05-23T15:54:52.846Z,1015.81
2023-05-23T16:00:22.049Z,1015.87
2023-05-23T16:05:34.583Z,1015.90
2023-05-23T16:10:49.416Z,1015.87
2023-05-23T16:16:01.964Z,1015.87
2023-05-23T16:21:10.323Z,1015.78
2023-05-23T16:26:28.736Z,1015.86
2023-05-23T16:31:46.797Z,1015.83
2023-05-23T16:36:51.373Z,1015.80
2023-05-23T16:42:01.656Z,1015.83
2023-05-23T16:47:14.005Z,1015.87
2023-05-23T16:52:27.876Z,1015.93
2023-05-23T16:58:30.394Z,1015.94
2023-05-23T17:03:27.638Z,1015.97
2023-05-23T17:08:13.227Z,1015.90
2023-05-23T17:13:25.645Z,1015.89
2023-05-23T17:18:37.992Z,1015.90
2023-05-23T17:23:55.021Z,1015.95
2023-05-23T17:29:07.127Z,1015.96
2023-05-23T17:34:25.298Z,1016.00
2023-05-23T17:39:28.045Z,1015.96
2023-05-23T17:44:38.044Z,1015.89
2023-05-23T17:49:51.183Z,1015.91
2023-05-23T17:54:59.095Z,1015.98
2023-05-23T18:00:14.800Z,1016.00
2023-05-23T18:05:23.256Z,1016.04
2023-05-23T18:10:36.676Z,1016.07
2023-05-23T18:15:47.772Z,1016.11
2023-05-23T18:20:53.462Z,1016.18
2023-05-23T18:26:14.832Z,1016.21
2023-05-23T18:31:23.160Z,1016.20
2023-05-23T18:36:45.336Z,1016.26
2023-05-23T18:42:02.876Z,1016.27
2023-05-23T18:47:35.504Z,1016.42
2023-05-23T18:52:56.338Z,1016.47
2023-05-23T18:58:24.204Z,1016.53
2023-05-23T19:02:59.669Z,1016.59
2023-05-23T19:08:04.737Z,1016.62
2023-05-23T19:13:13.137Z,1016.64
2023-05-23T19:18:21.363Z,1016.69
2023-05-23T19:23:36.818Z,1016.74
2023-05-23T19:29:29.578Z,1016.75
2023-05-23T19:35:09.813Z,1016.76
2023-05-23T19:41:20.119Z,1016.83
2023-05-23T19:46:44.730Z,1016.89
2023-05-23T19:52:32.202Z,1016.90
2023-05-23T19:58:02.211Z,1016.87
2023-05-23T20:03:50.106Z,1016.92
2023-05-23T20:13:34.689Z,1016.97
2023-05-23T20:14:38.567Z,1017.01
2023-05-23T20:20:09.086Z,1017.11
2023-05-23T20:25:15.931Z,1017.17
2023-05-23T20:30:24.128Z,1017.21
2023-05-23T20:35:41.737Z,1017.21
2023-05-23T20:40:47.051Z,1017.26
2023-05-23T20:46:05.761Z,1017.27
2023-05-23T20:51:38.998Z,1017.36
2023-05-23T20:56:31.144Z,1017.38
2023-05-23T21:01:36.623Z,1017.39
2023-05-23T21:07:02.497Z,1017.38
2023-05-23T21:13:00.195Z,1017.31
2023-05-23T21:18:25.372Z,1017.36
2023-05-23T21:24:01.716Z,1017.33
2023-05-23T21:29:17.539Z,1017.31
2023-05-23T21:35:00.311Z,1017.30
2023-05-23T21:45:57.512Z,1017.36
2023-05-23T21:52:17.721Z,1017.41
2023-05-23T21:57:44.289Z,1017.45
2023-05-23T22:03:03.346Z,1017.48
2023-05-23T22:08:08.606Z,1017.45
2023-05-23T22:13:16.401Z,1017.49
2023-05-23T22:18:26.671Z,1017.50
2023-05-23T22:23:48.644Z,1017.48
2023-05-23T22:29:31.372Z,1017.47
2023-05-23T22:34:57.464Z,1017.43
2023-05-23T22:40:11.095Z,1017.45
2023-05-23T22:52:00.298Z,1017.43
2023-05-23T22:52:25.065Z,1017.32
2023-05-23T22:56:12.535Z,1017.34
2023-05-23T23:01:35.119Z,1017.26
2023-05-23T23:07:13.727Z,1017.27
2023-05-23T23:12:30.240Z,1017.28
2023-05-23T23:17:45.563Z,1017.23
2023-05-23T23:22:53.565Z,1017.22
2023-05-23T23:28:01.148Z,1017.19
2023-05-23T23:33:08.795Z,1017.16
2023-05-23T23:38:35.519Z,1017.10
2023-05-23T23:45:35.124Z,1017.08
